Time,TemperatureF,DewpointF,PressureIn,WindDirection,WindDirectionDegrees,WindSpeedMPH,WindSpeedGustMPH,Humidity,HourlyPrecipIn,Conditions,Clouds,dailyrainin,SoftwareType,DateUTC
2013-06-17 00:00:00,59.2,54.0,30.17,SE,138,0.0,0.0,83,0.00,,CLR,0.00,VWS V14.01,2013-06-17 07:00:00,
2013-06-17 00:10:00,59.2,54.0,30.17,SE,139,0.0,0.0,83,0.00,,CLR,0.00,VWS V14.01,2013-06-17 07:10:00,
2013-06-17 00:20:00,59.2,55.0,30.17,SE,138,0.0,0.0,86,0.00,,CLR,0.00,VWS V14.01,2013-06-17 07:20:00,
2013-06-17 00:30:00,59.0,54.8,30.17,SE,139,0.0,0.0,86,0.00,,CLR,0.00,VWS V14.01,2013-06-17 07:30:00,
2013-06-17 00:40:00,58.8,55.0,30.17,SE,139,0.0,0.0,87,0.00,,CLR,0.00,VWS V14.01,2013-06-17 07:40:00,
2013-06-17 00:50:00,58.6,54.5,30.17,SE,138,0.0,0.0,86,0.00,,CLR,0.00,VWS V14.01,2013-06-17 07:50:00,
2013-06-17 01:00:00,58.3,54.1,30.17,SE,139,0.0,0.0,86,0.00,,CLR,0.00,VWS V14.01,2013-06-17 08:00:00,
2013-06-17 01:10:00,58.1,53.9,30.17,SE,139,0.0,0.0,86,0.00,,CLR,0.00,VWS V14.01,2013-06-17 08:10:00,
2013-06-17 01:20:00,57.9,53.8,30.17,SE,139,0.0,2.7,86,0.00,,CLR,0.00,VWS V14.01,2013-06-17 08:20:00,
2013-06-17 01:30:00,57.7,53.6,30.17,SE,139,0.0,0.0,86,0.00,,CLR,0.00,VWS V14.01,2013-06-17 08:30:00,
2013-06-17 01:40:00,57.6,53.7,30.20,SE,139,0.0,0.0,87,0.00,,CLR,0.00,VWS V14.01,2013-06-17 08:40:00,
2013-06-17 01:50:00,57.4,53.5,30.20,SE,138,0.0,0.0,87,0.00,,CLR,0.00,VWS V14.01,2013-06-17 08:50:00,
2013-06-17 02:00:00,57.2,53.4,30.20,SE,139,0.0,2.7,87,0.00,,CLR,0.00,VWS V14.01,2013-06-17 09:00:00,
2013-06-17 02:10:00,57.0,53.5,30.20,SE,139,0.0,2.7,88,0.00,,CLR,0.00,VWS V14.01,2013-06-17 09:10:00,
2013-06-17 02:20:00,57.0,53.5,30.20,SE,139,0.0,0.0,88,0.00,,CLR,0.00,VWS V14.01,2013-06-17 09:20:00,
2013-06-17 02:30:00,56.8,53.6,30.20,SE,139,0.0,0.0,89,0.00,,CLR,0.00,VWS V14.01,2013-06-17 09:30:00,
2013-06-17 02:40:00,56.8,53.6,30.20,SE,139,0.0,0.0,89,0.00,,CLR,0.00,VWS V14.01,2013-06-17 09:40:00,
2013-06-17 02:50:00,56.7,53.5,30.20,SE,139,0.0,0.0,89,0.00,,CLR,0.00,VWS V14.01,2013-06-17 09:50:00,
2013-06-17 03:00:00,56.5,53.3,30.20,SE,139,0.0,0.0,89,0.00,,,0.00,VWS V14.01,2013-06-17 10:00:00,
2013-06-17 03:10:00,56.5,53.3,30.20,SE,139,0.0,0.0,89,0.00,,,0.00,VWS V14.01,2013-06-17 10:10:00,
2013-06-17 03:20:00,56.5,53.3,30.20,SE,139,0.0,0.0,89,0.00,,,0.00,VWS V14.01,2013-06-17 10:20:00,
2013-06-17 03:30:00,56.3,53.1,30.23,SE,139,0.0,0.0,89,0.00,,,0.00,VWS V14.01,2013-06-17 10:30:00,
2013-06-17 03:40:00,56.3,53.1,30.23,SE,139,0.0,0.0,89,0.00,,,0.00,VWS V14.01,2013-06-17 10:40:00,
2013-06-17 03:50:00,56.3,53.1,30.23,SE,139,0.0,0.0,89,0.00,,,0.00,VWS V14.01,2013-06-17 10:50:00,
2013-06-17 04:00:00,56.5,53.6,30.23,SE,139,0.0,0.0,90,0.00,,,0.00,VWS V14.01,2013-06-17 11:00:00,
2013-06-17 04:10:00,56.7,53.8,30.26,SE,139,0.0,0.0,90,0.00,,,0.00,VWS V14.01,2013-06-17 11:10:00,
2013-06-17 04:20:00,56.8,54.2,30.26,SE,139,0.0,0.0,91,0.00,,,0.00,VWS V14.01,2013-06-17 11:20:00,
2013-06-17 04:30:00,57.0,54.7,30.26,SE,139,0.0,0.0,92,0.00,,,0.00,VWS V14.01,2013-06-17 11:30:00,
2013-06-17 04:40:00,57.2,54.9,30.29,SE,139,0.0,0.0,92,0.00,,,0.00,VWS V14.01,2013-06-17 11:40:00,
2013-06-17 04:50:00,57.2,54.9,30.29,SE,139,0.0,0.0,92,0.00,,,0.00,VWS V14.01,2013-06-17 11:50:00,
2013-06-17 05:00:00,57.4,55.1,30.29,SE,138,0.0,0.0,92,0.00,,,0.00,VWS V14.01,2013-06-17 12:00:00,
2013-06-17 05:10:00,57.4,55.4,30.29,SE,139,0.0,3.2,93,0.00,,,0.00,VWS V14.01,2013-06-17 12:10:00,
2013-06-17 05:20:00,57.6,55.6,30.29,SE,138,0.0,0.0,93,0.00,,,0.00,VWS V14.01,2013-06-17 12:20:00,
2013-06-17 05:30:00,57.6,55.6,30.29,SE,138,0.0,0.0,93,0.00,,,0.00,VWS V14.01,2013-06-17 12:30:00,
2013-06-17 05:40:00,57.6,55.8,30.32,SE,139,0.0,0.0,94,0.00,,,0.00,VWS V14.01,2013-06-17 12:40:00,
2013-06-17 05:50:00,57.6,55.8,30.32,West,278,0.0,3.8,94,0.00,,,0.00,VWS V14.01,2013-06-17 12:50:00,
2013-06-17 06:00:00,57.6,55.8,30.35,West,264,0.0,2.7,94,0.00,,,0.00,VWS V14.01,2013-06-17 13:00:00,
2013-06-17 06:10:00,57.6,55.8,30.35,West,264,0.0,0.0,94,0.00,,,0.00,VWS V14.01,2013-06-17 13:10:00,
2013-06-17 06:20:00,57.7,56.0,30.35,WSW,258,0.0,2.7,94,0.00,,,0.00,VWS V14.01,2013-06-17 13:20:00,
2013-06-17 06:30:00,57.7,56.0,30.35,South,169,0.0,4.3,94,0.00,,,0.00,VWS V14.01,2013-06-17 13:30:00,
2013-06-17 06:40:00,57.9,56.5,30.37,South,169,0.0,0.0,95,0.00,,,0.00,VWS V14.01,2013-06-17 13:40:00,
2013-06-17 06:50:00,58.1,56.7,30.37,South,169,0.0,0.0,95,0.00,,,0.00,VWS V14.01,2013-06-17 13:50:00,
2013-06-17 07:00:00,58.3,56.9,30.37,South,177,0.0,4.8,95,0.00,,,0.00,VWS V14.01,2013-06-17 14:00:00,
2013-06-17 07:10:00,58.3,56.9,30.40,WSW,239,0.0,4.3,95,0.00,,,0.00,VWS V14.01,2013-06-17 14:10:00,
2013-06-17 07:20:00,58.6,57.5,30.40,South,176,0.0,0.0,96,0.00,,,0.00,VWS V14.01,2013-06-17 14:20:00,
2013-06-17 07:30:00,58.8,57.7,30.40,SSE,168,0.0,2.7,96,0.00,,,0.00,VWS V14.01,2013-06-17 14:30:00,
2013-06-17 07:40:00,58.8,57.7,30.43,West,278,2.7,4.8,96,0.00,,,0.00,VWS V14.01,2013-06-17 14:40:00,
2013-06-17 07:50:00,58.8,57.7,30.43,WNW,289,0.0,3.8,96,0.00,,,0.00,VWS V14.01,2013-06-17 14:50:00,
2013-06-17 08:00:00,59.2,58.0,30.46,WNW,283,0.0,3.8,96,0.00,,,0.00,VWS V14.01,2013-06-17 15:00:00,
2013-06-17 08:10:00,59.2,58.0,30.49,West,266,0.0,4.8,96,0.00,,,0.00,VWS V14.01,2013-06-17 15:10:00,
2013-06-17 08:20:00,59.4,58.2,30.49,SSE,158,2.7,3.2,96,0.00,,,0.00,VWS V14.01,2013-06-17 15:20:00,
2013-06-17 08:30:00,59.5,58.4,30.52,South,182,0.0,4.8,96,0.00,,,0.00,VWS V14.01,2013-06-17 15:30:00,
2013-06-17 08:40:00,59.4,58.2,30.55,SSE,157,3.8,5.4,96,0.00,,,0.00,VWS V14.01,2013-06-17 15:40:00,
2013-06-17 08:50:00,59.7,58.6,30.55,SSW,213,0.0,4.3,96,0.00,,,0.00,VWS V14.01,2013-06-17 15:50:00,
2013-06-17 09:00:00,59.7,58.6,30.55,SSW,211,3.8,6.4,96,0.00,,,0.00,VWS V14.01,2013-06-17 16:00:00,
2013-06-17 09:10:00,59.9,58.5,30.58,SSE,159,2.7,4.8,95,0.00,,,0.00,VWS V14.01,2013-06-17 16:10:00,
2013-06-17 09:20:00,60.3,58.8,30.58,South,187,0.0,4.8,95,0.00,,,0.00,VWS V14.01,2013-06-17 16:20:00,
2013-06-17 09:30:00,60.6,59.2,30.61,South,183,3.2,3.8,95,0.00,,,0.00,VWS V14.01,2013-06-17 16:30:00,
2013-06-17 09:40:00,60.8,59.1,30.61,SW,229,2.7,6.4,94,0.00,,,0.00,VWS V14.01,2013-06-17 16:40:00,
2013-06-17 09:50:00,61.3,59.3,30.61,SSE,147,0.0,7.0,93,0.00,,,0.00,VWS V14.01,2013-06-17 16:50:00,
2013-06-17 10:00:00,61.9,59.5,30.64,West,271,2.7,7.0,92,0.00,,,0.00,VWS V14.01,2013-06-17 17:00:00,
2013-06-17 10:10:00,62.6,59.9,30.67,SSW,211,3.2,6.4,91,0.00,,,0.00,VWS V14.01,2013-06-17 17:10:00,
2013-06-17 10:20:00,63.0,59.7,30.67,South,176,3.8,7.0,89,0.00,,,0.00,VWS V14.01,2013-06-17 17:20:00,
2013-06-17 10:30:00,63.9,60.2,30.67,SSE,165,4.8,7.5,88,0.00,,,0.00,VWS V14.01,2013-06-17 17:30:00,
2013-06-17 10:40:00,64.6,60.0,30.70,SSW,198,3.8,7.5,85,0.00,,,0.00,VWS V14.01,2013-06-17 17:40:00,
2013-06-17 10:50:00,65.3,59.7,30.70,SW,227,3.8,7.5,82,0.00,,,0.00,VWS V14.01,2013-06-17 17:50:00,
2013-06-17 11:00:00,65.8,59.5,30.70,South,175,9.1,9.1,80,0.00,,,0.00,VWS V14.01,2013-06-17 18:00:00,
2013-06-17 11:10:00,66.2,59.5,30.70,WNW,286,4.3,9.9,79,0.00,,OVC010,0.00,VWS V14.01,2013-06-17 18:10:00,
2013-06-17 11:20:00,66.9,59.5,30.70,West,263,3.2,10.5,77,0.00,,OVC010,0.00,VWS V14.01,2013-06-17 18:20:00,
2013-06-17 11:30:00,67.6,59.4,30.73,South,171,9.1,9.7,75,0.00,,OVC010,0.00,VWS V14.01,2013-06-17 18:30:00,
2013-06-17 11:40:00,68.0,59.0,30.73,SSW,197,6.4,9.9,73,0.00,,OVC010,0.00,VWS V14.01,2013-06-17 18:40:00,
2013-06-17 11:50:00,68.4,58.6,30.73,South,183,4.3,9.1,71,0.00,,OVC010,0.00,VWS V14.01,2013-06-17 18:50:00,
2013-06-17 12:00:00,68.7,59.0,30.73,SW,214,4.8,9.7,71,0.00,,OVC010,0.00,VWS V14.01,2013-06-17 19:00:00,
2013-06-17 12:10:00,69.6,59.0,30.70,SW,218,4.3,9.9,69,0.00,,OVC010,0.00,VWS V14.01,2013-06-17 19:10:00,
2013-06-17 12:20:00,70.0,59.0,30.70,West,259,7.5,9.9,68,0.00,,OVC010,0.00,VWS V14.01,2013-06-17 19:20:00,
2013-06-17 12:30:00,70.3,58.9,30.70,SSW,199,4.8,9.9,67,0.00,,OVC010,0.00,VWS V14.01,2013-06-17 19:30:00,
2013-06-17 12:40:00,70.5,58.2,30.70,WSW,239,3.8,11.5,65,0.00,,SCT012,0.00,VWS V14.01,2013-06-17 19:40:00,
2013-06-17 12:50:00,71.2,58.5,30.70,SSW,208,4.8,9.7,64,0.00,,SCT012,0.00,VWS V14.01,2013-06-17 19:50:00,
2013-06-17 13:00:00,71.2,58.0,30.67,SSE,166,3.2,10.5,63,0.00,,SCT012,0.00,VWS V14.01,2013-06-17 20:00:00,
2013-06-17 13:10:00,71.8,58.1,30.67,SSE,168,4.3,8.1,62,0.00,,SCT012,0.00,VWS V14.01,2013-06-17 20:10:00,
2013-06-17 13:20:00,72.1,58.0,30.67,SW,214,8.6,10.5,61,0.00,,SCT012,0.00,VWS V14.01,2013-06-17 20:20:00,
2013-06-17 13:30:00,72.0,57.8,30.64,SSW,196,9.9,11.0,61,0.00,,SCT012,0.00,VWS V14.01,2013-06-17 20:30:00,
2013-06-17 13:40:00,71.8,57.6,30.61,WSW,243,7.0,12.6,61,0.00,,CLR,0.00,VWS V14.01,2013-06-17 20:40:00,
2013-06-17 13:50:00,72.0,57.8,30.61,WSW,243,9.1,11.5,61,0.00,,CLR,0.00,VWS V14.01,2013-06-17 20:50:00,
2013-06-17 14:00:00,71.4,57.7,30.61,SW,223,8.1,15.8,62,0.00,,CLR,0.00,VWS V14.01,2013-06-17 21:00:00,
2013-06-17 14:10:00,71.6,58.3,30.58,WSW,246,7.0,13.2,63,0.00,,CLR,0.00,VWS V14.01,2013-06-17 21:10:00,
2013-06-17 14:20:00,72.0,58.2,30.58,WSW,250,6.4,12.1,62,0.00,,CLR,0.00,VWS V14.01,2013-06-17 21:20:00,
2013-06-17 14:30:00,71.6,57.9,30.55,SW,232,6.4,12.6,62,0.00,,CLR,0.00,VWS V14.01,2013-06-17 21:30:00,
2013-06-17 14:40:00,71.8,58.5,30.52,SSW,194,3.2,12.6,63,0.00,,CLR,0.00,VWS V14.01,2013-06-17 21:40:00,
2013-06-17 14:50:00,71.8,58.1,30.52,SW,229,5.9,12.6,62,0.00,,CLR,0.00,VWS V14.01,2013-06-17 21:50:00,
2013-06-17 15:00:00,72.3,58.6,30.52,WSW,239,9.9,10.5,62,0.00,,CLR,0.00,VWS V14.01,2013-06-17 22:00:00,
2013-06-17 15:10:00,72.7,58.9,30.49,SSW,194,4.8,9.9,62,0.00,,CLR,0.00,VWS V14.01,2013-06-17 22:10:00,
2013-06-17 15:20:00,73.2,58.5,30.49,SSW,204,4.3,9.9,60,0.00,,CLR,0.00,VWS V14.01,2013-06-17 22:20:00,
2013-06-17 15:30:00,73.6,58.8,30.46,WSW,248,6.4,9.7,60,0.00,,CLR,0.00,VWS V14.01,2013-06-17 22:30:00,
2013-06-17 15:40:00,73.9,59.2,30.43,South,173,7.5,13.2,60,0.00,,CLR,0.00,VWS V14.01,2013-06-17 22:40:00,
2013-06-17 15:50:00,74.3,59.1,30.43,SW,229,4.8,9.9,59,0.00,,CLR,0.00,VWS V14.01,2013-06-17 22:50:00,
2013-06-17 16:00:00,74.3,59.1,30.40,South,174,9.1,12.1,59,0.00,,CLR,0.00,VWS V14.01,2013-06-17 23:00:00,
2013-06-17 16:10:00,74.5,59.2,30.37,SSE,151,7.0,9.1,59,0.00,,CLR,0.00,VWS V14.01,2013-06-17 23:10:00,
2013-06-17 16:20:00,74.5,59.2,30.37,South,171,7.0,9.7,59,0.00,,CLR,0.00,VWS V14.01,2013-06-17 23:20:00,
2013-06-17 16:30:00,74.5,58.8,30.35,South,173,6.4,10.5,58,0.00,,CLR,0.00,VWS V14.01,2013-06-17 23:30:00,
2013-06-17 16:40:00,74.5,58.8,30.32,SE,140,3.8,9.7,58,0.00,,CLR,0.00,VWS V14.01,2013-06-17 23:40:00,
2013-06-17 16:50:00,75.0,58.8,30.32,SSE,159,6.4,8.1,57,0.00,,FEW010,0.00,VWS V14.01,2013-06-17 23:50:00,
2013-06-17 17:00:00,75.2,57.9,30.29,SSE,167,3.2,9.1,55,0.00,,FEW010,0.00,VWS V14.01,2013-06-18 00:00:00,
2013-06-17 17:10:00,75.6,58.3,30.26,ESE,119,2.7,9.7,55,0.00,,FEW010,0.00,VWS V14.01,2013-06-18 00:10:00,
2013-06-17 17:20:00,75.4,58.1,30.26,ESE,116,3.2,9.7,55,0.00,,FEW010,0.00,VWS V14.01,2013-06-18 00:20:00,
2013-06-17 17:30:00,75.4,58.6,30.23,SE,140,0.0,8.6,56,0.00,,FEW010,0.00,VWS V14.01,2013-06-18 00:30:00,
2013-06-17 17:40:00,75.4,58.1,30.20,South,169,4.8,7.5,55,0.00,,CLR,0.00,VWS V14.01,2013-06-18 00:40:00,
2013-06-17 17:50:00,75.0,58.8,30.20,SW,216,4.3,7.0,57,0.00,,CLR,0.00,VWS V14.01,2013-06-18 00:50:00,
2013-06-17 18:00:00,74.7,58.4,30.20,South,185,5.9,7.0,57,0.00,,CLR,0.00,VWS V14.01,2013-06-18 01:00:00,
2013-06-17 18:10:00,74.1,58.4,30.17,SSW,200,4.8,5.9,58,0.00,,CLR,0.00,VWS V14.01,2013-06-18 01:10:00,
2013-06-17 18:20:00,73.8,58.1,30.17,SSE,163,4.8,6.4,58,0.00,,CLR,0.00,VWS V14.01,2013-06-18 01:20:00,
2013-06-17 18:30:00,73.4,57.7,30.17,SSE,157,4.3,7.0,58,0.00,,CLR,0.00,VWS V14.01,2013-06-18 01:30:00,
2013-06-17 18:40:00,73.0,57.9,30.14,SSE,167,3.8,5.9,59,0.00,,CLR,0.00,VWS V14.01,2013-06-18 01:40:00,
2013-06-17 18:50:00,72.7,57.5,30.14,SSE,162,3.8,7.5,59,0.00,,CLR,0.00,VWS V14.01,2013-06-18 01:50:00,
2013-06-17 19:00:00,72.1,57.5,30.11,SSE,156,0.0,6.4,60,0.00,,CLR,0.00,VWS V14.01,2013-06-18 02:00:00,
2013-06-17 19:10:00,71.6,57.5,30.11,South,181,4.3,4.3,61,0.00,,CLR,0.00,VWS V14.01,2013-06-18 02:10:00,
2013-06-17 19:20:00,70.9,57.7,30.11,SSE,158,0.0,6.4,63,0.00,,CLR,0.00,VWS V14.01,2013-06-18 02:20:00,
2013-06-17 19:30:00,70.5,57.8,30.11,SSE,164,0.0,4.8,64,0.00,,CLR,0.00,VWS V14.01,2013-06-18 02:30:00,
2013-06-17 19:40:00,70.2,57.4,30.08,SSE,157,0.0,4.3,64,0.00,,CLR,0.00,VWS V14.01,2013-06-18 02:40:00,
2013-06-17 19:50:00,69.6,57.3,30.08,ESE,110,2.7,6.4,65,0.00,,CLR,0.00,VWS V14.01,2013-06-18 02:50:00,
2013-06-17 20:00:00,69.3,57.4,30.08,East,88,4.8,8.1,66,0.00,,CLR,0.00,VWS V14.01,2013-06-18 03:00:00,
2013-06-17 20:10:00,68.9,57.1,30.05,East,98,3.2,5.9,66,0.00,,CLR,0.00,VWS V14.01,2013-06-18 03:10:00,
2013-06-17 20:20:00,68.4,57.0,30.05,East,96,2.7,4.8,67,0.00,,CLR,0.00,VWS V14.01,2013-06-18 03:20:00,
2013-06-17 20:30:00,68.0,56.7,30.05,East,91,3.8,5.9,67,0.00,,CLR,0.00,VWS V14.01,2013-06-18 03:30:00,
2013-06-17 20:40:00,67.6,56.7,30.05,East,82,0.0,4.8,68,0.00,,CLR,0.00,VWS V14.01,2013-06-18 03:40:00,
2013-06-17 20:50:00,67.3,56.8,30.05,East,86,0.0,4.8,69,0.00,,CLR,0.00,VWS V14.01,2013-06-18 03:50:00,
2013-06-17 21:00:00,67.1,56.6,30.05,East,86,0.0,2.7,69,0.00,,CLR,0.00,VWS V14.01,2013-06-18 04:00:00,
2013-06-17 21:10:00,66.7,56.7,30.05,East,84,0.0,3.8,70,0.00,,CLR,0.00,VWS V14.01,2013-06-18 04:10:00,
2013-06-17 21:20:00,66.4,56.3,30.05,NE,45,0.0,3.2,70,0.00,,CLR,0.00,VWS V14.01,2013-06-18 04:20:00,